Time;durP1;ratioP1;P1;durP2;ratioP2;P2;SDS_P1;SDS_P2;PMS_P1;PMS_P2;Temp;Humidity;BMP_temperature;BMP_pressure;BME280_temperature;BME280_humidity;BME280_pressure;Samples;Min_cycle;Max_cycle;Signal;HPM_P1;HPM_P2
2021/11/18 00:01:05;;;;;;;30.27;17.67;;;6.20;92.20;;;;;;5058042;28;20044;-73
2021/11/18 00:03:31;;;;;;;32.20;17.90;;;6.10;92.20;;;;;;5063590;28;20431;-73
2021/11/18 00:05:57;;;;;;;31.30;17.83;;;6.20;92.10;;;;;;5060780;28;20092;-74
2021/11/18 00:08:24;;;;;;;26.27;16.75;;;6.20;92.20;;;;;;5065390;28;20036;-73
2021/11/18 00:10:53;;;;;;;29.67;17.33;;;6.10;92.10;;;;;;5060381;28;20040;-74
2021/11/18 00:13:22;;;;;;;31.40;17.40;;;6.10;92.20;;;;;;5063313;28;20036;-74
2021/11/18 00:15:49;;;;;;;33.03;17.20;;;6.20;92.20;;;;;;5032818;28;20049;-73
2021/11/18 00:18:19;;;;;;;27.20;16.98;;;6.20;92.30;;;;;;5039767;28;20033;-73
2021/11/18 00:20:50;;;;;;;32.03;17.08;;;6.20;92.20;;;;;;5037524;28;20393;-75
2021/11/18 00:23:17;;;;;;;34.03;18.70;;;6.20;92.20;;;;;;5041501;28;20068;-74
2021/11/18 00:25:43;;;;;;;29.35;16.73;;;6.20;92.10;;;;;;5043919;28;20109;-73
2021/11/18 00:28:08;;;;;;;30.35;16.48;;;6.20;92.10;;;;;;5046216;28;20064;-73
2021/11/18 00:30:35;;;;;;;28.05;16.50;;;6.20;92.00;;;;;;5043686;28;20037;-74
2021/11/18 00:33:01;;;;;;;31.92;16.83;;;6.20;91.90;;;;;;5045685;28;20477;-73
2021/11/18 00:35:28;;;;;;;27.23;16.10;;;6.20;91.80;;;;;;5043611;28;20040;-74
2021/11/18 00:37:55;;;;;;;27.52;16.38;;;6.20;91.70;;;;;;5046017;28;20037;-72
2021/11/18 00:40:24;;;;;;;26.55;15.77;;;6.20;91.80;;;;;;5042890;28;20069;-74
2021/11/18 00:42:50;;;;;;;39.10;17.75;;;6.10;91.80;;;;;;5047943;28;20033;-76
2021/11/18 00:45:19;;;;;;;30.83;16.20;;;6.10;91.80;;;;;;5045571;28;20034;-75
2021/11/18 00:47:46;;;;;;;26.55;15.73;;;6.10;91.80;;;;;;5043217;28;20041;-73
2021/11/18 00:50:12;;;;;;;25.02;15.48;;;6.10;91.90;;;;;;5046438;28;20481;-73
2021/11/18 00:52:37;;;;;;;30.40;16.27;;;6.00;91.90;;;;;;5068929;28;20040;-73
2021/11/18 00:55:06;;;;;;;33.42;16.65;;;6.00;92.00;;;;;;5060285;28;20048;-73
2021/11/18 00:57:33;;;;;;;32.47;16.77;;;6.00;92.10;;;;;;5058647;28;20504;-72
2021/11/18 00:59:59;;;;;;;31.55;17.15;;;5.90;92.00;;;;;;5040078;28;20033;-73
2021/11/18 01:02:25;;;;;;;29.05;14.95;;;5.90;92.00;;;;;;5029946;28;20041;-73
2021/11/18 01:04:50;;;;;;;31.90;17.30;;;5.90;92.00;;;;;;5041571;28;20039;-74
2021/11/18 01:07:16;;;;;;;29.02;16.98;;;5.80;92.10;;;;;;5037848;28;20053;-72
2021/11/18 01:09:42;;;;;;;33.10;17.10;;;5.80;92.10;;;;;;5041734;28;20812;-75
2021/11/18 01:12:09;;;;;;;37.28;17.98;;;5.80;92.20;;;;;;5033759;28;20022;-74
2021/11/18 01:14:36;;;;;;;31.00;17.48;;;5.80;92.20;;;;;;5033780;28;20041;-73
2021/11/18 01:17:03;;;;;;;27.30;16.10;;;5.70;92.20;;;;;;5042817;28;20060;-73
2021/11/18 01:19:31;;;;;;;32.60;16.52;;;5.70;92.20;;;;;;5047341;28;20032;-73
2021/11/18 01:21:57;;;;;;;36.35;17.05;;;5.70;92.20;;;;;;5033683;28;20030;-75
2021/11/18 01:24:23;;;;;;;32.88;17.08;;;5.70;92.30;;;;;;5038794;28;20507;-73
2021/11/18 01:26:49;;;;;;;31.23;18.15;;;5.70;92.30;;;;;;5044091;28;20033;-73
2021/11/18 01:29:15;;;;;;;31.42;17.50;;;5.70;92.30;;;;;;5035499;28;20464;-73
2021/11/18 01:31:41;;;;;;;29.88;17.40;;;5.60;92.20;;;;;;5037838;28;20033;-73
2021/11/18 01:34:07;;;;;;;32.92;17.35;;;5.60;92.30;;;;;;5052120;28;20041;-76
2021/11/18 01:36:33;;;;;;;33.88;17.95;;;5.60;92.30;;;;;;5040755;28;20043;-72
2021/11/18 01:38:59;;;;;;;29.50;17.45;;;5.60;92.30;;;;;;5046981;28;20025;-73
2021/11/18 01:41:28;;;;;;;28.85;15.93;;;5.50;92.30;;;;;;5043103;28;20288;-73
2021/11/18 01:43:58;;;;;;;31.67;17.23;;;5.50;92.30;;;;;;5041443;28;20089;-72
2021/11/18 01:46:28;;;;;;;31.17;18.25;;;5.50;92.40;;;;;;5041490;28;20640;-75
2021/11/18 01:48:54;;;;;;;33.08;18.58;;;5.50;92.40;;;;;;5036257;28;20483;-73
2021/11/18 01:51:27;;;;;;;32.33;18.50;;;5.50;92.50;;;;;;5038137;28;20118;-73
2021/11/18 01:53:53;;;;;;;36.35;18.88;;;5.50;92.50;;;;;;5049731;28;20115;-73
2021/11/18 01:56:31;;;;;;;27.77;17.50;;;5.50;92.40;;;;;;5040501;28;20124;-73
2021/11/18 01:59:01;;;;;;;37.63;19.25;;;5.50;92.40;;;;;;5042691;28;20358;-73
2021/11/18 02:01:26;;;;;;;27.65;18.17;;;5.50;92.50;;;;;;5039749;28;20553;-73
2021/11/18 02:03:52;;;;;;;33.28;19.15;;;5.50;92.50;;;;;;5041258;28;20036;-76
2021/11/18 02:06:40;;;;;;;33.85;18.83;;;5.50;92.40;;;;;;5032977;28;20433;-75
2021/11/18 02:09:11;;;;;;;31.20;18.92;;;5.50;92.40;;;;;;5032408;28;20387;-74
2021/11/18 02:11:44;;;;;;;34.40;18.33;;;5.50;92.40;;;;;;5039930;28;20040;-72
2021/11/18 02:14:13;;;;;;;35.17;18.85;;;5.40;92.40;;;;;;5032934;28;20087;-73
2021/11/18 02:16:41;;;;;;;43.72;20.75;;;5.40;92.50;;;;;;5032259;28;20099;-73
2021/11/18 02:19:08;;;;;;;31.45;19.20;;;5.40;92.50;;;;;;5043953;28;20036;-73
2021/11/18 02:21:35;;;;;;;40.38;20.33;;;5.40;92.60;;;;;;5037489;28;20116;-74
2021/11/18 02:24:09;;;;;;;38.83;19.13;;;5.50;92.70;;;;;;5046751;28;20465;-72
2021/11/18 02:26:35;;;;;;;32.63;18.92;;;5.50;92.70;;;;;;5041019;28;20041;-74
2021/11/18 02:29:07;;;;;;;31.27;18.52;;;5.40;92.60;;;;;;5045738;28;20104;-75
2021/11/18 02:31:38;;;;;;;38.08;18.90;;;5.40;92.60;;;;;;5060947;28;20514;-76
2021/11/18 02:34:09;;;;;;;33.05;18.73;;;5.40;92.60;;;;;;5055413;28;20048;-73
2021/11/18 02:36:35;;;;;;;41.08;19.52;;;5.30;92.60;;;;;;5034503;28;20059;-73
2021/11/18 02:39:01;;;;;;;32.65;17.90;;;5.40;92.70;;;;;;5034150;28;20033;-75
2021/11/18 02:41:26;;;;;;;33.22;18.48;;;5.30;92.70;;;;;;5038989;28;20071;-74
2021/11/18 02:43:52;;;;;;;32.50;18.42;;;5.30;92.70;;;;;;5039665;28;20191;-73
2021/11/18 02:46:18;;;;;;;36.33;18.05;;;5.30;92.70;;;;;;5034714;28;20040;-75
2021/11/18 02:48:44;;;;;;;35.63;19.15;;;5.30;92.70;;;;;;5037378;28;20104;-73
2021/11/18 02:51:12;;;;;;;35.55;19.42;;;5.30;92.70;;;;;;5036029;28;20041;-73
2021/11/18 02:53:38;;;;;;;32.00;18.08;;;5.20;92.70;;;;;;5032709;28;20037;-76
2021/11/18 02:56:05;;;;;;;30.48;18.27;;;5.20;92.80;;;;;;5031588;28;20044;-73
2021/11/18 02:58:30;;;;;;;34.78;17.25;;;5.20;92.80;;;;;;5039749;28;20029;-74
2021/11/18 03:01:01;;;;;;;26.65;16.23;;;5.20;92.80;;;;;;5045876;28;20098;-72
2021/11/18 03:03:27;;;;;;;30.17;16.45;;;5.10;92.80;;;;;;5060235;28;21139;-73
2021/11/18 03:05:55;;;;;;;33.67;16.75;;;5.10;92.80;;;;;;5056389;28;20045;-75
2021/11/18 03:08:22;;;;;;;30.20;18.05;;;5.10;92.80;;;;;;5039942;28;20021;-74
2021/11/18 03:10:48;;;;;;;29.38;17.52;;;5.10;92.80;;;;;;5038585;28;20068;-72
2021/11/18 03:13:15;;;;;;;28.52;16.00;;;5.10;92.90;;;;;;5041813;28;20055;-73
2021/11/18 03:15:41;;;;;;;34.92;16.50;;;5.10;92.80;;;;;;5046684;28;20041;-73
2021/11/18 03:18:07;;;;;;;32.22;16.52;;;5.10;92.80;;;;;;5034012;28;20029;-74
2021/11/18 03:20:33;;;;;;;29.23;15.80;;;5.10;92.80;;;;;;5040082;28;20096;-73
2021/11/18 03:23:00;;;;;;;27.27;17.05;;;5.00;92.80;;;;;;5069808;28;20040;-72
2021/11/18 03:25:32;;;;;;;27.63;15.93;;;5.10;92.80;;;;;;5034640;28;20384;-74
2021/11/18 03:27:58;;;;;;;27.63;16.52;;;5.00;92.90;;;;;;5036208;28;20033;-73
2021/11/18 03:30:27;;;;;;;33.75;16.20;;;5.00;92.80;;;;;;5041464;28;20064;-72
2021/11/18 03:32:57;;;;;;;33.05;17.08;;;5.00;92.90;;;;;;5032113;28;20119;-73
2021/11/18 03:35:23;;;;;;;28.35;15.45;;;5.00;92.90;;;;;;5041080;28;20125;-73
2021/11/18 03:37:49;;;;;;;26.63;15.23;;;5.00;92.80;;;;;;5052566;28;20062;-74
2021/11/18 03:40:16;;;;;;;30.73;17.17;;;4.90;92.80;;;;;;5040452;28;20460;-74
2021/11/18 03:42:43;;;;;;;30.58;16.92;;;4.90;92.80;;;;;;5034211;28;20065;-73
2021/11/18 03:45:10;;;;;;;24.10;14.75;;;4.90;92.90;;;;;;5039309;28;20491;-73
2021/11/18 03:47:36;;;;;;;28.55;15.32;;;4.90;92.80;;;;;;5034213;28;20037;-72
2021/11/18 03:50:03;;;;;;;30.10;16.13;;;4.90;92.90;;;;;;5036470;28;20063;-72
2021/11/18 03:52:28;;;;;;;33.80;16.20;;;4.90;92.90;;;;;;5034657;28;20033;-72
2021/11/18 03:54:54;;;;;;;33.40;16.92;;;4.90;93.00;;;;;;5036862;28;20042;-73
2021/11/18 03:57:20;;;;;;;31.20;16.13;;;5.00;92.90;;;;;;5034190;28;20037;-73
2021/11/18 03:59:48;;;;;;;31.25;15.35;;;5.00;92.90;;;;;;5037613;28;20037;-73
2021/11/18 04:02:14;;;;;;;31.23;15.23;;;5.00;92.90;;;;;;5029287;28;20044;-74
2021/11/18 04:04:44;;;;;;;30.73;14.77;;;5.00;92.90;;;;;;5042742;28;20055;-73
2021/11/18 04:07:12;;;;;;;29.30;15.45;;;5.00;92.80;;;;;;5037628;28;20083;-73
2021/11/18 04:09:39;;;;;;;36.30;16.15;;;5.00;92.90;;;;;;5036632;28;20025;-72
2021/11/18 04:12:08;;;;;;;27.83;15.63;;;5.00;92.90;;;;;;5039779;28;20071;-73
2021/11/18 04:14:36;;;;;;;34.33;15.57;;;5.00;92.90;;;;;;5060720;28;20036;-73
2021/11/18 04:17:02;;;;;;;33.80;15.25;;;5.00;92.90;;;;;;5057801;28;20033;-73
2021/11/18 04:19:28;;;;;;;39.67;16.85;;;5.00;93.00;;;;;;5060664;28;20033;-73
2021/11/18 04:21:55;;;;;;;31.85;16.10;;;5.00;92.90;;;;;;5061038;28;20031;-74
2021/11/18 04:24:27;;;;;;;33.97;16.38;;;5.00;93.00;;;;;;5063307;28;20024;-73
2021/11/18 04:26:53;;;;;;;31.08;14.98;;;5.00;92.90;;;;;;5065258;28;20097;-73
2021/11/18 04:29:27;;;;;;;36.13;15.65;;;5.00;92.90;;;;;;5061143;28;20211;-73
2021/11/18 04:32:03;;;;;;;28.10;15.50;;;5.00;93.10;;;;;;5071631;28;20064;-72
2021/11/18 04:34:29;;;;;;;32.05;15.10;;;5.00;93.00;;;;;;5057217;28;20037;-73
2021/11/18 04:36:55;;;;;;;40.13;16.65;;;5.00;93.00;;;;;;5059634;28;20041;-73
2021/11/18 04:39:21;;;;;;;35.22;16.15;;;5.00;93.00;;;;;;5060887;28;20066;-74
2021/11/18 04:41:48;;;;;;;29.90;14.95;;;5.00;93.00;;;;;;5060948;28;20030;-72
2021/11/18 04:44:14;;;;;;;39.35;16.25;;;4.90;93.00;;;;;;5060709;28;20058;-73
2021/11/18 04:46:40;;;;;;;35.72;14.48;;;5.00;93.10;;;;;;5063388;28;20435;-72
2021/11/18 04:49:06;;;;;;;30.63;14.80;;;5.00;93.00;;;;;;5063471;28;20040;-74
2021/11/18 04:51:33;;;;;;;32.25;14.10;;;5.00;93.00;;;;;;5062918;28;20082;-72
2021/11/18 04:53:59;;;;;;;25.08;13.85;;;4.90;93.00;;;;;;5062117;28;20319;-75
2021/11/18 04:56:25;;;;;;;31.00;14.13;;;5.00;93.10;;;;;;5061011;28;20127;-73
2021/11/18 04:58:52;;;;;;;38.47;16.10;;;5.00;93.10;;;;;;5061009;28;20040;-74
2021/11/18 05:01:18;;;;;;;30.95;14.20;;;5.00;93.10;;;;;;5058834;28;20060;-77
2021/11/18 05:03:46;;;;;;;39.15;15.88;;;4.90;93.00;;;;;;5069225;28;20040;-74
2021/11/18 05:06:12;;;;;;;33.08;14.73;;;4.90;93.10;;;;;;5059921;28;20463;-75
2021/11/18 05:08:38;;;;;;;37.80;15.40;;;4.90;93.10;;;;;;5065875;28;20076;-73
2021/11/18 05:11:04;;;;;;;30.92;14.65;;;4.90;93.10;;;;;;5065991;28;20071;-73
2021/11/18 05:13:31;;;;;;;29.77;14.80;;;5.00;93.20;;;;;;5063561;28;20032;-75
2021/11/18 05:15:59;;;;;;;27.27;14.38;;;5.00;93.10;;;;;;5054290;28;20056;-74
2021/11/18 05:18:27;;;;;;;31.23;14.77;;;5.00;93.10;;;;;;5061275;28;20037;-74
2021/11/18 05:20:53;;;;;;;30.88;14.40;;;4.90;93.10;;;;;;5060859;28;20075;-73
2021/11/18 05:23:20;;;;;;;42.35;15.25;;;5.00;93.10;;;;;;5061055;28;20064;-73
2021/11/18 05:25:46;;;;;;;35.58;16.20;;;4.90;93.10;;;;;;5058267;28;20462;-74
2021/11/18 05:28:13;;;;;;;40.20;16.73;;;4.90;93.20;;;;;;5060071;28;20119;-74
2021/11/18 05:30:39;;;;;;;30.15;15.68;;;4.90;93.10;;;;;;5062265;28;20053;-73
2021/11/18 05:33:08;;;;;;;34.15;17.02;;;4.90;93.20;;;;;;5062563;28;20125;-74
2021/11/18 05:35:35;;;;;;;34.88;16.77;;;4.90;93.20;;;;;;5058331;28;20143;-72
2021/11/18 05:38:01;;;;;;;31.23;16.40;;;4.90;93.20;;;;;;5053674;28;20040;-74
2021/11/18 05:40:28;;;;;;;37.60;15.68;;;4.90;93.20;;;;;;5060061;28;20029;-73
2021/11/18 05:42:54;;;;;;;31.30;15.13;;;4.90;93.20;;;;;;5063088;28;20045;-72
2021/11/18 05:45:24;;;;;;;33.65;16.10;;;4.90;93.20;;;;;;5054161;28;20032;-73
2021/11/18 05:47:49;;;;;;;33.88;15.80;;;5.00;93.30;;;;;;5059110;28;20037;-75
2021/11/18 05:50:16;;;;;;;34.58;16.63;;;4.90;93.20;;;;;;5060429;28;20657;-73
2021/11/18 05:52:43;;;;;;;35.28;15.98;;;4.90;93.30;;;;;;5041659;28;20366;-73
2021/11/18 05:55:13;;;;;;;30.27;15.15;;;4.90;93.30;;;;;;5037614;28;20041;-74
2021/11/18 05:57:39;;;;;;;37.33;17.00;;;4.90;93.30;;;;;;5033986;28;20044;-75
2021/11/18 06:00:09;;;;;;;32.97;15.90;;;5.00;93.30;;;;;;5038394;28;20033;-75
2021/11/18 06:02:34;;;;;;;36.45;15.55;;;5.00;93.30;;;;;;5035022;28;20120;-73
2021/11/18 06:05:00;;;;;;;32.00;16.45;;;5.00;93.30;;;;;;5040136;28;20170;-75
2021/11/18 06:07:26;;;;;;;33.35;15.88;;;5.00;93.30;;;;;;5033827;28;20076;-72
2021/11/18 06:09:53;;;;;;;31.15;16.17;;;4.90;93.20;;;;;;5047058;28;20069;-72
2021/11/18 06:12:19;;;;;;;31.90;15.50;;;4.90;93.20;;;;;;5040526;28;20043;-74
2021/11/18 06:14:44;;;;;;;31.80;15.90;;;4.90;93.20;;;;;;5063127;28;20033;-73
2021/11/18 06:17:10;;;;;;;32.70;15.38;;;4.90;93.20;;;;;;5031437;28;20094;-73
2021/11/18 06:19:36;;;;;;;27.35;16.13;;;4.90;93.30;;;;;;5030610;28;20460;-72
2021/11/18 06:22:02;;;;;;;32.42;16.00;;;4.90;93.30;;;;;;5031786;28;20499;-73
2021/11/18 06:24:28;;;;;;;30.27;16.33;;;4.90;93.20;;;;;;5036706;28;20539;-73
2021/11/18 06:26:56;;;;;;;37.28;17.08;;;4.90;93.30;;;;;;5034258;28;20049;-73
2021/11/18 06:29:23;;;;;;;30.58;16.10;;;4.90;93.30;;;;;;5033672;28;20076;-73
2021/11/18 06:31:51;;;;;;;34.47;16.80;;;4.80;93.20;;;;;;5044628;28;20033;-73
2021/11/18 06:34:17;;;;;;;32.55;16.85;;;4.80;93.20;;;;;;5036804;28;20657;-74
2021/11/18 06:36:43;;;;;;;32.75;17.38;;;4.80;93.20;;;;;;5043128;28;20116;-74
2021/11/18 06:39:10;;;;;;;36.13;18.20;;;4.80;93.20;;;;;;5052048;28;20141;-72
2021/11/18 06:41:36;;;;;;;32.92;18.98;;;4.80;93.20;;;;;;5039100;28;20025;-73
2021/11/18 06:44:02;;;;;;;33.88;18.20;;;4.80;93.30;;;;;;5047671;28;20597;-75
2021/11/18 06:46:27;;;;;;;33.10;17.95;;;4.80;93.20;;;;;;5037038;28;20056;-73
2021/11/18 06:48:54;;;;;;;39.80;20.50;;;4.80;93.20;;;;;;5035950;28;20032;-72
2021/11/18 06:51:23;;;;;;;31.00;18.45;;;4.70;93.30;;;;;;5043859;28;20041;-74
2021/11/18 06:53:50;;;;;;;54.53;22.52;;;4.70;93.20;;;;;;5030384;28;20040;-74
2021/11/18 06:56:17;;;;;;;38.22;19.88;;;4.70;93.20;;;;;;5031305;28;20057;-75
2021/11/18 06:58:43;;;;;;;38.13;20.10;;;4.70;93.20;;;;;;5051338;28;20062;-74
2021/11/18 07:01:09;;;;;;;45.65;20.60;;;4.80;93.20;;;;;;5043590;28;20495;-76
2021/11/18 07:03:39;;;;;;;35.95;19.17;;;4.80;93.20;;;;;;5035775;28;20119;-77
2021/11/18 07:06:06;;;;;;;37.63;19.90;;;4.80;93.20;;;;;;5043877;28;20039;-73
2021/11/18 07:08:33;;;;;;;43.58;20.10;;;4.80;93.20;;;;;;5044912;28;20029;-75
2021/11/18 07:10:58;;;;;;;37.63;19.60;;;4.80;93.10;;;;;;5037061;28;20124;-75
2021/11/18 07:13:26;;;;;;;38.28;19.55;;;4.80;93.10;;;;;;5037350;28;20049;-73
2021/11/18 07:15:53;;;;;;;38.70;19.25;;;4.90;93.10;;;;;;5045457;28;20094;-69
2021/11/18 07:18:23;;;;;;;33.80;16.92;;;4.90;93.00;;;;;;5043384;28;20036;-70
2021/11/18 07:20:49;;;;;;;31.40;17.85;;;4.90;92.90;;;;;;5040618;28;20038;-70
2021/11/18 07:23:16;;;;;;;45.75;22.55;;;4.90;92.90;;;;;;5038128;28;20041;-69
2021/11/18 07:25:42;;;;;;;35.42;18.50;;;5.00;93.00;;;;;;5040830;28;20025;-70
2021/11/18 07:28:07;;;;;;;36.75;18.02;;;5.00;92.90;;;;;;5036917;28;20032;-71
2021/11/18 07:30:34;;;;;;;30.17;16.55;;;4.90;92.90;;;;;;5058838;28;20048;-71
2021/11/18 07:33:00;;;;;;;40.10;16.75;;;4.90;92.90;;;;;;5046701;28;20028;-69
2021/11/18 07:35:26;;;;;;;36.28;17.80;;;5.00;92.90;;;;;;5054803;28;20048;-72
2021/11/18 07:37:53;;;;;;;38.65;18.30;;;5.00;92.90;;;;;;5046212;28;20097;-71
2021/11/18 07:40:21;;;;;;;32.35;16.70;;;5.00;92.90;;;;;;5030520;28;20142;-71
2021/11/18 07:42:48;;;;;;;34.40;16.98;;;5.00;92.90;;;;;;5028161;28;20432;-69
2021/11/18 07:45:15;;;;;;;33.92;16.33;;;5.10;92.90;;;;;;5034219;28;20037;-69
2021/11/18 07:47:41;;;;;;;30.95;16.35;;;5.10;92.90;;;;;;5052991;28;20029;-70
2021/11/18 07:50:08;;;;;;;32.08;16.98;;;5.10;92.90;;;;;;5032997;28;20045;-69
2021/11/18 07:52:38;;;;;;;31.02;16.70;;;5.10;92.90;;;;;;5051038;28;20088;-71
2021/11/18 07:55:06;;;;;;;36.50;16.88;;;5.10;92.80;;;;;;5034698;28;20036;-71
2021/11/18 07:57:31;;;;;;;33.08;16.20;;;5.10;92.70;;;;;;5033948;28;20049;-69
2021/11/18 07:59:57;;;;;;;33.80;16.38;;;5.10;92.70;;;;;;5033345;28;20464;-72
2021/11/18 08:02:23;;;;;;;31.88;15.88;;;5.20;92.70;;;;;;5048465;28;20033;-69
2021/11/18 08:04:49;;;;;;;30.50;15.40;;;5.20;92.70;;;;;;5044532;28;20036;-70
2021/11/18 08:07:14;;;;;;;33.10;17.20;;;5.20;92.40;;;;;;5031497;28;20392;-71
2021/11/18 08:09:40;;;;;;;35.53;16.98;;;5.20;92.40;;;;;;5043811;28;20041;-69
2021/11/18 08:12:07;;;;;;;31.23;16.80;;;5.20;92.30;;;;;;5038732;28;20451;-73
2021/11/18 08:14:33;;;;;;;28.50;15.52;;;5.30;92.30;;;;;;5037895;28;20431;-69
2021/11/18 08:16:59;;;;;;;29.58;15.05;;;5.30;92.30;;;;;;5041216;28;20045;-70
2021/11/18 08:19:26;;;;;;;36.00;16.83;;;5.30;92.30;;;;;;5060369;28;20630;-71
2021/11/18 08:21:53;;;;;;;29.25;15.18;;;5.30;92.30;;;;;;5039489;28;20551;-70
2021/11/18 08:24:21;;;;;;;33.72;18.75;;;5.40;92.30;;;;;;5037915;28;20039;-69
2021/11/18 08:26:47;;;;;;;28.33;16.70;;;5.50;92.40;;;;;;5044136;28;20037;-70
2021/11/18 08:29:15;;;;;;;30.45;17.33;;;5.50;92.40;;;;;;5041313;28;20244;-72
2021/11/18 08:31:43;;;;;;;33.70;17.45;;;5.60;92.40;;;;;;5067859;28;20033;-70
2021/11/18 08:34:09;;;;;;;37.25;17.67;;;5.70;92.40;;;;;;5035538;28;20068;-70
2021/11/18 08:36:37;;;;;;;30.88;17.17;;;5.80;92.30;;;;;;5044078;28;20083;-69
2021/11/18 08:39:06;;;;;;;33.22;17.23;;;5.90;92.30;;;;;;5039974;28;20056;-74
2021/11/18 08:41:33;;;;;;;28.83;16.70;;;6.10;92.10;;;;;;5040915;28;20459;-68
2021/11/18 08:43:59;;;;;;;31.63;17.10;;;6.10;92.10;;;;;;5058915;28;20578;-69
2021/11/18 08:46:25;;;;;;;31.75;17.05;;;6.30;91.90;;;;;;5055738;28;20051;-71
2021/11/18 08:48:58;;;;;;;26.65;16.48;;;6.50;91.60;;;;;;5043577;28;20028;-69
2021/11/18 08:51:24;;;;;;;31.20;15.02;;;6.60;91.30;;;;;;5052798;28;20137;-69
2021/11/18 08:53:52;;;;;;;30.75;15.77;;;6.70;90.80;;;;;;5058992;28;20055;-70
2021/11/18 08:56:19;;;;;;;32.78;16.15;;;6.90;90.60;;;;;;5063373;28;20045;-70
2021/11/18 08:58:47;;;;;;;29.60;15.23;;;7.00;90.10;;;;;;5046776;28;20115;-71
2021/11/18 09:01:20;;;;;;;30.08;15.65;;;7.20;89.80;;;;;;5044723;28;20068;-70
2021/11/18 09:03:46;;;;;;;26.70;14.40;;;7.40;89.60;;;;;;5036577;28;20044;-74
2021/11/18 09:06:15;;;;;;;31.58;15.25;;;7.50;88.70;;;;;;5024395;28;21309;-70
2021/11/18 09:08:40;;;;;;;30.63;14.77;;;7.50;88.50;;;;;;5039705;28;20108;-71
2021/11/18 09:11:09;;;;;;;27.30;14.52;;;7.60;88.40;;;;;;5036777;28;20054;-70
2021/11/18 09:13:36;;;;;;;23.33;13.48;;;7.70;88.50;;;;;;5039654;28;20075;-68
2021/11/18 09:16:03;;;;;;;26.95;14.32;;;7.90;88.20;;;;;;5036104;28;20048;-74
2021/11/18 09:18:29;;;;;;;30.73;13.10;;;8.00;87.50;;;;;;5043454;28;20029;-68
2021/11/18 09:20:56;;;;;;;30.73;14.02;;;8.10;87.70;;;;;;5049842;28;20044;-72
2021/11/18 09:23:26;;;;;;;29.77;12.98;;;8.30;87.30;;;;;;5039628;28;20040;-69
2021/11/18 09:25:52;;;;;;;28.20;14.18;;;8.40;87.10;;;;;;5035412;28;20029;-72
2021/11/18 09:28:21;;;;;;;26.75;13.38;;;8.50;86.80;;;;;;5045142;28;20037;-70
2021/11/18 09:30:52;;;;;;;22.23;12.55;;;8.70;86.60;;;;;;5036405;28;20116;-70
2021/11/18 09:33:19;;;;;;;28.13;13.50;;;8.80;86.20;;;;;;5036200;28;20514;-68
2021/11/18 09:35:50;;;;;;;24.70;12.95;;;8.90;85.50;;;;;;5041433;28;20033;-69
2021/11/18 09:38:18;;;;;;;27.38;13.60;;;8.90;85.40;;;;;;5051366;28;20460;-69
2021/11/18 09:40:59;;;;;;;27.38;12.95;;;9.00;85.50;;;;;;5033873;28;20064;-70
2021/11/18 09:44:05;;;;;;;34.33;12.93;;;9.10;85.20;;;;;;5035059;28;20028;-73
2021/11/18 09:46:51;;;;;;;29.58;14.05;;;9.20;84.90;;;;;;5054030;28;20661;-69
2021/11/18 09:49:59;;;;;;;25.17;12.98;;;9.30;85.00;;;;;;5045190;28;20095;-70
2021/11/18 09:52:43;;;;;;;29.17;13.02;;;9.40;84.90;;;;;;5050292;28;20060;-69
2021/11/18 09:55:31;;;;;;;30.10;13.40;;;9.50;84.50;;;;;;5053766;28;20045;-68
2021/11/18 09:58:20;;;;;;;26.00;11.93;;;9.60;84.50;;;;;;5035572;28;20045;-72
2021/11/18 10:01:05;;;;;;;20.30;11.82;;;9.60;84.50;;;;;;5064313;28;20040;-71
2021/11/18 10:03:41;;;;;;;;;;;9.80;84.50;;;;;;5054220;28;20491;-70
2021/11/18 10:06:15;;;;;;;27.10;12.40;;;9.90;83.90;;;;;;5052171;28;19978;-69
2021/11/18 10:08:52;;;;;;;;;;;10.00;83.50;;;;;;5043849;28;20048;-73
2021/11/18 10:11:45;;;;;;;24.02;12.43;;;10.00;83.20;;;;;;5042210;28;19916;-69
2021/11/18 10:14:47;;;;;;;29.65;13.32;;;10.10;83.60;;;;;;5045018;28;20037;-69
2021/11/18 10:17:32;;;;;;;22.95;12.02;;;10.10;83.30;;;;;;5038559;28;20507;-75
2021/11/18 10:20:02;;;;;;;25.05;12.73;;;10.20;83.10;;;;;;5049518;28;20037;-70
2021/11/18 10:22:30;;;;;;;25.52;12.85;;;10.40;82.90;;;;;;5044312;28;20430;-69
2021/11/18 10:24:58;;;;;;;27.33;12.95;;;10.40;82.50;;;;;;5045431;28;20048;-70
2021/11/18 10:27:34;;;;;;;25.70;12.13;;;10.50;82.40;;;;;;5035352;28;20036;-69
2021/11/18 10:30:21;;;;;;;24.10;11.60;;;10.60;82.20;;;;;;5055716;28;20061;-69
2021/11/18 10:33:09;;;;;;;27.75;11.82;;;10.60;82.00;;;;;;5064615;28;20364;-69
2021/11/18 10:35:53;;;;;;;27.33;12.52;;;10.70;81.90;;;;;;5060187;28;20317;-70
2021/11/18 10:38:32;;;;;;;31.48;12.60;;;10.90;82.20;;;;;;5063339;28;20052;-70
2021/11/18 10:41:24;;;;;;;28.80;12.38;;;11.00;80.90;;;;;;5064638;28;20082;-70
2021/11/18 10:44:20;;;;;;;26.23;13.13;;;11.00;80.90;;;;;;5056455;28;20032;-70
2021/11/18 10:47:08;;;;;;;24.98;12.20;;;11.10;81.20;;;;;;5048548;28;20042;-68
2021/11/18 10:49:48;;;;;;;22.63;11.80;;;11.20;80.90;;;;;;5061987;28;20035;-69
2021/11/18 10:52:32;;;;;;;27.20;12.30;;;11.30;80.70;;;;;;5061767;28;20070;-71
2021/11/18 10:55:06;;;;;;;27.52;12.68;;;11.40;80.40;;;;;;5062369;28;20158;-71
2021/11/18 10:57:32;;;;;;;26.88;11.65;;;11.40;80.60;;;;;;5059756;28;20396;-70
2021/11/18 11:00:36;;;;;;;27.45;11.25;;;11.60;80.30;;;;;;5063553;28;20036;-69
2021/11/18 11:03:25;;;;;;;27.27;11.45;;;11.60;79.50;;;;;;5039096;28;20029;-70
2021/11/18 11:06:12;;;;;;;23.27;11.45;;;11.60;79.10;;;;;;5032230;28;20033;-69
2021/11/18 11:08:40;;;;;;;26.55;11.20;;;11.60;79.50;;;;;;5060240;28;20036;-71
2021/11/18 11:11:43;;;;;;;33.17;12.10;;;11.60;79.70;;;;;;5052991;28;20029;-69
2021/11/18 11:14:43;;;;;;;23.45;10.75;;;11.70;79.40;;;;;;5044691;28;20064;-72
2021/11/18 11:17:33;;;;;;;28.00;12.00;;;11.80;79.60;;;;;;5039892;28;20065;-75
2021/11/18 11:20:07;;;;;;;24.90;11.55;;;11.90;79.00;;;;;;5042804;28;20067;-70
2021/11/18 11:22:55;;;;;;;25.05;11.52;;;12.10;79.20;;;;;;5050868;28;20475;-70
2021/11/18 11:25:30;;;;;;;27.50;11.60;;;12.10;78.60;;;;;;5055643;28;20037;-70
2021/11/18 11:28:26;;;;;;;23.63;11.25;;;12.20;78.50;;;;;;5042970;28;20549;-75
2021/11/18 11:31:14;;;;;;;25.63;12.13;;;12.30;78.10;;;;;;5055557;28;20135;-72
2021/11/18 11:33:47;;;;;;;27.15;12.02;;;12.30;77.90;;;;;;5053842;28;20406;-71
2021/11/18 11:36:24;;;;;;;19.50;10.02;;;12.30;78.00;;;;;;5059898;28;20491;-69
2021/11/18 11:39:19;;;;;;;25.23;10.98;;;12.30;77.90;;;;;;5059193;28;20468;-70
2021/11/18 11:42:13;;;;;;;25.10;10.35;;;12.40;77.80;;;;;;5059032;28;20029;-70
2021/11/18 11:45:01;;;;;;;25.15;9.43;;;12.50;78.10;;;;;;5050493;28;20542;-69
2021/11/18 11:47:54;;;;;;;31.27;10.27;;;12.60;77.70;;;;;;5049827;28;20029;-70
2021/11/18 11:50:48;;;;;;;22.10;7.30;;;12.80;77.20;;;;;;5042536;28;20120;-69
2021/11/18 11:53:38;;;;;;;22.75;8.02;;;12.70;76.30;;;;;;5037579;28;20496;-74
2021/11/18 11:56:11;;;;;;;23.00;6.32;;;12.80;76.40;;;;;;5037169;28;20115;-68
2021/11/18 11:58:40;;;;;;;25.67;7.50;;;12.90;75.40;;;;;;5041881;28;20037;-70
2021/11/18 12:01:20;;;;;;;19.65;5.95;;;12.90;75.70;;;;;;5044161;28;20028;-71
2021/11/18 12:04:09;;;;;;;19.35;6.35;;;13.00;75.40;;;;;;5036667;28;20508;-69
2021/11/18 12:07:17;;;;;;;21.92;6.10;;;12.90;74.70;;;;;;5044476;28;20037;-71
2021/11/18 12:09:49;;;;;;;27.65;6.85;;;12.90;74.90;;;;;;5040332;28;20065;-72
2021/11/18 12:12:37;;;;;;;19.50;6.10;;;12.80;74.70;;;;;;5042085;28;20045;-70
2021/11/18 12:15:09;;;;;;;19.75;6.68;;;12.90;74.70;;;;;;5068055;28;20040;-70
2021/11/18 12:17:59;;;;;;;21.58;5.95;;;13.00;74.80;;;;;;5063222;28;20033;-70
2021/11/18 12:20:30;;;;;;;22.55;6.32;;;13.00;75.10;;;;;;5065605;28;20151;-70
2021/11/18 12:23:08;;;;;;;21.20;6.10;;;13.10;74.80;;;;;;5049611;28;20419;-70
2021/11/18 12:26:00;;;;;;;23.05;7.10;;;13.20;74.40;;;;;;5064876;28;20053;-69
2021/11/18 12:28:37;;;;;;;23.63;6.80;;;13.20;73.80;;;;;;5066959;28;20090;-69
2021/11/18 12:31:03;;;;;;;21.95;6.20;;;13.30;74.70;;;;;;5064231;28;20468;-70
2021/11/18 12:33:29;;;;;;;16.98;5.30;;;13.30;73.60;;;;;;5065884;28;20085;-70
2021/11/18 12:36:13;;;;;;;22.23;5.45;;;13.40;73.50;;;;;;5069320;28;20391;-72
2021/11/18 12:39:17;;;;;;;20.08;6.40;;;13.40;73.90;;;;;;5058283;28;20029;-69
2021/11/18 12:42:21;;;;;;;23.00;6.43;;;13.50;74.30;;;;;;5063176;28;20703;-71
2021/11/18 12:44:58;;;;;;;19.13;6.15;;;13.50;74.00;;;;;;5065817;28;20028;-69
2021/11/18 12:47:48;;;;;;;22.05;5.82;;;13.50;74.10;;;;;;5065542;28;20036;-69
2021/11/18 12:50:54;;;;;;;19.23;4.80;;;13.40;73.90;;;;;;5062555;28;20091;-75
2021/11/18 12:53:29;;;;;;;16.23;5.35;;;13.30;74.10;;;;;;5067588;28;20075;-71
2021/11/18 12:56:09;;;;;;;23.80;6.55;;;13.30;74.00;;;;;;5067664;28;20087;-70